Nearby METAR Reports

 

KTTN - Trenton, New Jersey, USA
Distance from station: WNW 11mi, 17km
Updated: Fri, 21-Feb-2020 8:53am EST
Clear
Clear
 Wind from N
Wind: N 8 mph , 13 km/h, Gust: 21 mph , 33 km/h
Temperature: 23°F , -5°C
Wind Chill: 14°F , -10°C
Dew Point: 9°F , -13°C
Humidity: 54%
Barometer: 30.51 inHg , 1033.2 hPa
Clouds: Clear
Visibility: 10 miles , 16 km
2020/02/21 13:53 KTTN 211353Z 01007G18KT 10SM CLR M05/M13 A3051 RMK AO2 SLP329 T10501128
KWRI - Wrightst/Mcguire, New Jersey, USA
Distance from station: SSE 14mi, 22km
Updated: Fri, 21-Feb-2020 8:56am EST
Clear
Clear
 Wind from N
Wind: N 15 mph , 24 km/h, Gust: 22 mph , 35 km/h
Temperature: 25°F , -4°C
Wind Chill: 13°F , -11°C
Dew Point: 7°F , -14°C
Humidity: 46%
Barometer: 30.50 inHg , 1032.8 hPa
Clouds: Clear
Visibility: 10 miles , 16 km
2020/02/21 13:56 KWRI 211356Z AUTO 36013G19KT 10SM CLR M04/M14 A3050 RMK AO2 SLP330 T10361136 CHINO RWY24 $
 
KNEL - Lakehurst Nas, New Jersey, USA
Distance from station: SE 21mi, 34km
Updated: Fri, 21-Feb-2020 9:00am EST
Clear
Clear
 Wind from varies
Wind: varies 5 mph , 7 km/h
Temperature: 25°F , -4°C
Wind Chill: 19°F , -7°C
Dew Point: 7°F , -14°C
Humidity: 46%
Barometer: 30.50 inHg , 1032.8 hPa
Clouds: Clear
Visibility: 10 miles , 16 km
2020/02/21 14:00 KNEL 211400Z VRB04KT 10SM CLR M04/M14 A3050 RMK AO2 SLP329 T10391139 $
KPNE - Philadelphia/Ne, Pennsylvania, USA
Distance from station: WSW 22mi, 35km
Updated: Fri, 21-Feb-2020 8:54am EST
Clear
Clear
 Wind from N
Wind: N 13 mph , 20 km/h
Temperature: 27°F , -3°C
Wind Chill: 16°F , -9°C
Dew Point: 9°F , -13°C
Humidity: 46%
Barometer: 30.54 inHg , 1034.2 hPa
Clouds: Clear
Visibility: 10 miles , 16 km
2020/02/21 13:54 KPNE 211354Z 01011KT 10SM CLR M03/M13 A3054 RMK AO2 SLP344 T10281128
 
KVAY - Mount Holly, New Jersey, USA
Distance from station: SSW 22mi, 35km
Updated: Fri, 21-Feb-2020 8:54am EST
Clear
Clear
 Wind from N
Wind: N 18 mph , 30 km/h, Gust: 24 mph , 39 km/h
Temperature: 25°F , -4°C
Wind Chill: 11°F , -12°C
Dew Point: 9°F , -13°C
Humidity: 50%
Barometer: 30.53 inHg , 1033.9 hPa
Clouds: Clear
Visibility: 10 miles , 16 km
2020/02/21 13:54 KVAY 211354Z AUTO 35016G21KT 10SM CLR M04/M13 A3053 RMK AO2 SLP338 T10391128
KMJX - Toms River, New Jersey, USA
Distance from station: SE 26mi, 42km
Updated: Fri, 21-Feb-2020 8:56am EST
Clear
Clear
 Wind from NNE
Wind: NNE 13 mph , 20 km/h
Temperature: 25°F , -4°C
Wind Chill: 13°F , -11°C
Dew Point: 10°F , -12°C
Humidity: 54%
Barometer: 30.51 inHg , 1033.2 hPa
Clouds: Clear
Visibility: 10 miles , 16 km
2020/02/21 13:56 KMJX 211356Z AUTO 02011KT 10SM CLR M04/M12 A3051 RMK AO2 SLP338 T10441122 FZRANO
 
KDYL - Doylestown, Pennsylvania, USA
Distance from station: WNW 27mi, 43km
Updated: Fri, 21-Feb-2020 8:54am EST
Clear
Clear
 Wind from N
Wind: N 10 mph , 17 km/h, Gust: 21 mph , 33 km/h
Temperature: 25°F , -4°C
Wind Chill: 15°F , -9°C
Dew Point: 9°F , -13°C
Humidity: 50%
Barometer: 30.50 inHg , 1032.8 hPa
Clouds: Clear
Visibility: 10 miles , 16 km
2020/02/21 13:54 KDYL 211354Z AUTO 01009G18KT 10SM CLR M04/M13 A3050 RMK AO2 SLP338 T10441133
KBLM - Belmar/Farmdale, New Jersey, USA
Distance from station: E 28mi, 45km
Updated: Fri, 21-Feb-2020 8:56am EST
Clear
Clear
 Wind from NNW
Wind: NNW 15 mph , 24 km/h
Temperature: 25°F , -4°C
Wind Chill: 13°F , -11°C
Dew Point: 9°F , -13°C
Humidity: 50%
Barometer: 30.51 inHg , 1033.2 hPa
Clouds: Clear
Visibility: 10 miles , 16 km
2020/02/21 13:56 KBLM 211356Z AUTO 34013KT 10SM CLR M04/M13 A3051 RMK AO2 SLP333 T10391128 FZRANO
 
KSMQ - Somerville, New Jersey, USA
Distance from station: N 28mi, 45km
Updated: Fri, 21-Feb-2020 8:53am EST
Clear
Clear
 Wind from N
Wind: N 12 mph , 19 km/h
Temperature: 25°F , -4°C
Wind Chill: 14°F , -10°C
Dew Point: 7°F , -14°C
Humidity: 46%
Barometer: 30.51 inHg , 1033.2 hPa
Clouds: Clear
Visibility: 10 miles , 16 km
2020/02/21 13:53 KSMQ 211353Z AUTO 35010KT 10SM CLR M04/M14 A3051 RMK AO2 SLP333 T10441139
KLOM - Philly Wings F, Pennsylvania, USA
Distance from station: W 34mi, 54km
Updated: Fri, 21-Feb-2020 9:15am EST
Partly cloudy
Partly cloudy
 Wind from NW
Wind: NW 9 mph , 15 km/h
Temperature: 25°F , -4°C
Wind Chill: 16°F , -9°C
Dew Point: 10°F , -12°C
Humidity: 54%
Barometer: 30.52 inHg , 1033.5 hPa
Clouds: Partly cloudy
Visibility: 10 miles , 16 km
Cloud details: Partly cloudy 3300 ft
2020/02/21 14:15 KLOM 211415Z AUTO 32008KT 300V360 10SM SCT033 M04/M12 A3052 RMK AO2 T10451122
 
KLDJ - Linden, New Jersey, USA
Distance from station: NE 35mi, 56km
Updated: Fri, 21-Feb-2020 8:55am EST
Clear
Clear
 Wind from calm
Wind: Calm
Temperature: 25°F , -4°C
Dew Point: 7°F , -14°C
Humidity: 46%
Barometer: 30.52 inHg , 1033.5 hPa
Clouds: Clear
Visibility: 10 miles , 16 km
2020/02/21 13:55 KLDJ 211355Z AUTO 00000KT 10SM CLR M04/M14 A3052 RMK AO2 T10451140
KCKZ - Perkasie, Pennsylvania, USA
Distance from station: WNW 36mi, 58km
Updated: Fri, 21-Feb-2020 8:55am EST
Clear
Clear
 Wind from NNW
Wind: NNW 10 mph , 17 km/h
Temperature: 23°F , -5°C
Wind Chill: 13°F , -11°C
Dew Point: 9°F , -13°C
Humidity: 54%
Barometer: 30.50 inHg , 1032.8 hPa
Clouds: Clear
Visibility: 10 miles , 16 km
2020/02/21 13:55 KCKZ 211355Z AUTO 33009KT 310V010 10SM CLR M05/M13 A3050 RMK AO2
 
KPHL - Philadelphia, Pennsylvania, USA
Distance from station: SW 40mi, 64km
Updated: Fri, 21-Feb-2020 8:54am EST
Few Clouds
Few Clouds
 Wind from NNE
Wind: NNE 15 mph , 24 km/h
Temperature: 25°F , -4°C
Wind Chill: 13°F , -11°C
Dew Point: 7°F , -14°C
Humidity: 46%
Barometer: 30.54 inHg , 1034.2 hPa
Clouds: Few Clouds
Visibility: 10 miles , 16 km
Cloud details: Few Clouds 3600 ft
2020/02/21 13:54 KPHL 211354Z 02013KT 10SM FEW036 M04/M14 A3054 RMK AO2 SLP340 T10441139
KEWR - Newark, New Jersey, USA
Distance from station: NE 41mi, 66km
Updated: Fri, 21-Feb-2020 8:51am EST
Few Clouds
Few Clouds
 Wind from N
Wind: N 10 mph , 17 km/h
Temperature: 25°F , -4°C
Wind Chill: 15°F , -9°C
Dew Point: 7°F , -14°C
Humidity: 46%
Barometer: 30.51 inHg , 1033.2 hPa
Clouds: Few Clouds
Visibility: 10 miles , 16 km
Cloud details: Few Clouds 3000 ft
2020/02/21 13:51 KEWR 211351Z 35009KT 10SM FEW030 M04/M14 A3051 RMK AO2 SLP332 T10441139
 
KMMU - Morristown Muni, New Jersey, USA
Distance from station: NNE 41mi, 66km
Updated: Fri, 21-Feb-2020 8:45am EST
Clear
Clear
 Wind from NNE
Wind: NNE 12 mph , 19 km/h, Gust: 20 mph , 31 km/h
Temperature: 23°F , -5°C
Wind Chill: 11°F , -12°C
Dew Point: 10°F , -12°C
Humidity: 58%
Barometer: 30.52 inHg , 1033.5 hPa
Clouds: Clear
Visibility: 10 miles , 16 km
2020/02/21 13:45 KMMU 211345Z 02010G17KT 10SM SKC M05/M12 A3052
KUKT - Quakertown Arp, Pennsylvania, USA
Distance from station: WNW 42mi, 68km
Updated: Fri, 21-Feb-2020 9:15am EST
Clear
Clear
 Wind from NNW
Wind: NNW 12 mph , 19 km/h, Gust: 18 mph , 30 km/h
Temperature: 23°F , -5°C
Wind Chill: 11°F , -12°C
Dew Point: 9°F , -13°C
Humidity: 54%
Barometer: 30.51 inHg , 1033.2 hPa
Clouds: Clear
Visibility: 10 miles , 16 km
2020/02/21 14:15 KUKT 211415Z AUTO 34010G16KT 290V010 10SM CLR M05/M13 A3051 RMK A01
 
KJRB - Manhattan/Dwntwn, New York, USA
Distance from station: NE 47mi, 75km
Updated: Fri, 21-Feb-2020 8:56am EST
Clear
Clear
 Wind from varies
Wind: varies 5 mph , 7 km/h, Gust: 16 mph , 26 km/h
Temperature: 28°F , -2°C
Wind Chill: 22°F , -6°C
Dew Point: 19°F , -7°C
Humidity: 69%
Barometer: 30.52 inHg , 1033.5 hPa
Clouds: Clear
Visibility: 10 miles , 16 km
2020/02/21 13:56 KJRB 211356Z AUTO VRB04G14KT 10SM CLR M02/M07 A3052 RMK AO2 SLP334 T10171072 FZRANO
KPTW - Pottstown, Pennsylvania, USA
Distance from station: W 48mi, 77km
Updated: Fri, 21-Feb-2020 8:54am EST
Clear
Clear
 Wind from N
Wind: N 9 mph , 15 km/h
Temperature: 21°F , -6°C
Wind Chill: 11°F , -12°C
Dew Point: 9°F , -13°C
Humidity: 58%
Barometer: 30.54 inHg , 1034.2 hPa
Clouds: Clear
Visibility: 9 miles , 14 km
2020/02/21 13:54 KPTW 211354Z AUTO 36008KT 9SM CLR M06/M13 A3054 RMK AO2 SLP343 T10561128
 
KCDW - Caldwell, New Jersey, USA
Distance from station: NNE 50mi, 80km
Updated: Fri, 21-Feb-2020 8:53am EST
Clear
Clear
 Wind from varies
Wind: varies 7 mph , 11 km/h
Temperature: 25°F , -4°C
Wind Chill: 17°F , -8°C
Dew Point: 7°F , -14°C
Humidity: 46%
Barometer: 30.51 inHg , 1033.2 hPa
Clouds: Clear
Visibility: 10 miles , 16 km
2020/02/21 13:53 KCDW 211353Z VRB06KT 10SM CLR M04/M14 A3051 RMK AO2 SLP339 T10441139